sensor_id;sensor_type;location;lat;lon;timestamp;P1;durP1;ratioP1;P2;durP2;ratioP2
74483;SDS011;62942;52.462;10.846;2023-12-20T00:00:27;8.6;;;11.6;;
74483;SDS011;62942;52.462;10.846;2023-12-20T00:01:27;8.4;;;12.5;;
74483;SDS011;62942;52.462;10.846;2023-12-20T00:02:37;8.3;;;11.1;;
74483;SDS011;62942;52.462;10.846;2023-12-20T00:03:47;7.9;;;10.5;;
74483;SDS011;62942;52.462;10.846;2023-12-20T00:04:57;8.3;;;11.6;;
74483;SDS011;62942;52.462;10.846;2023-12-20T00:06:07;7.8;;;9.9;;
74483;SDS011;62942;52.462;10.846;2023-12-20T00:07:17;7.6;;;10.3;;
74483;SDS011;62942;52.462;10.846;2023-12-20T00:08:17;8.2;;;11.2;;
74483;SDS011;62942;52.462;10.846;2023-12-20T00:09:17;7.7;;;10.2;;
74483;SDS011;62942;52.462;10.846;2023-12-20T00:10:17;7.4;;;9.6;;
74483;SDS011;62942;52.462;10.846;2023-12-20T00:11:27;7.2;;;10.8;;
74483;SDS011;62942;52.462;10.846;2023-12-20T00:12:27;7.1;;;10.4;;
74483;SDS011;62942;52.462;10.846;2023-12-20T00:13:37;7.1;;;10.7;;
74483;SDS011;62942;52.462;10.846;2023-12-20T00:14:47;6.8;;;9;;
74483;SDS011;62942;52.462;10.846;2023-12-20T00:15:57;7.1;;;9.4;;
74483;SDS011;62942;52.462;10.846;2023-12-20T00:17:07;6.8;;;9.6;;
74483;SDS011;62942;52.462;10.846;2023-12-20T00:18:17;6.7;;;9.9;;
74483;SDS011;62942;52.462;10.846;2023-12-20T00:19:27;7;;;9.1;;
74483;SDS011;62942;52.462;10.846;2023-12-20T00:20:37;6.7;;;9.1;;
74483;SDS011;62942;52.462;10.846;2023-12-20T00:21:47;6.4;;;8.1;;
74483;SDS011;62942;52.462;10.846;2023-12-20T00:22:57;6.4;;;9.2;;
74483;SDS011;62942;52.462;10.846;2023-12-20T00:24:07;6.4;;;8.5;;
74483;SDS011;62942;52.462;10.846;2023-12-20T00:25:07;6.5;;;8.9;;
74483;SDS011;62942;52.462;10.846;2023-12-20T00:26:17;6.7;;;8.9;;
74483;SDS011;62942;52.462;10.846;2023-12-20T00:27:27;6.3;;;9.6;;
74483;SDS011;62942;52.462;10.846;2023-12-20T00:28:37;6.6;;;9.2;;
74483;SDS011;62942;52.462;10.846;2023-12-20T00:29:37;6.3;;;9.4;;
74483;SDS011;62942;52.462;10.846;2023-12-20T00:30:47;6.2;;;8.3;;
74483;SDS011;62942;52.462;10.846;2023-12-20T00:31:57;6.3;;;8.4;;
74483;SDS011;62942;52.462;10.846;2023-12-20T00:32:57;6.3;;;9.3;;
74483;SDS011;62942;52.462;10.846;2023-12-20T00:34:07;6.1;;;8.9;;
74483;SDS011;62942;52.462;10.846;2023-12-20T00:35:17;5.9;;;7.9;;
74483;SDS011;62942;52.462;10.846;2023-12-20T00:36:27;5.9;;;9.4;;
74483;SDS011;62942;52.462;10.846;2023-12-20T00:37:37;5.4;;;7.5;;
74483;SDS011;62942;52.462;10.846;2023-12-20T00:38:37;5;;;7.2;;
74483;SDS011;62942;52.462;10.846;2023-12-20T00:39:47;5.1;;;8.2;;
74483;SDS011;62942;52.462;10.846;2023-12-20T00:40:47;5;;;8.4;;
74483;SDS011;62942;52.462;10.846;2023-12-20T00:41:57;5;;;7.5;;
74483;SDS011;62942;52.462;10.846;2023-12-20T00:43:07;4.6;;;6.9;;
74483;SDS011;62942;52.462;10.846;2023-12-20T00:44:17;4.5;;;6.6;;
74483;SDS011;62942;52.462;10.846;2023-12-20T00:45:27;4.4;;;6.6;;
74483;SDS011;62942;52.462;10.846;2023-12-20T00:46:37;4.2;;;6.9;;
74483;SDS011;62942;52.462;10.846;2023-12-20T00:47:37;4.2;;;6.4;;
74483;SDS011;62942;52.462;10.846;2023-12-20T00:48:47;4;;;5.7;;
74483;SDS011;62942;52.462;10.846;2023-12-20T00:49:57;3.9;;;6.4;;
74483;SDS011;62942;52.462;10.846;2023-12-20T00:51:07;3.8;;;6.1;;
74483;SDS011;62942;52.462;10.846;2023-12-20T00:52:17;3.7;;;7.5;;
74483;SDS011;62942;52.462;10.846;2023-12-20T00:53:27;3.7;;;6.2;;
74483;SDS011;62942;52.462;10.846;2023-12-20T00:54:37;3.9;;;7.1;;
74483;SDS011;62942;52.462;10.846;2023-12-20T00:55:47;3.7;;;5.9;;
74483;SDS011;62942;52.462;10.846;2023-12-20T00:56:47;3.8;;;6.3;;
74483;SDS011;62942;52.462;10.846;2023-12-20T00:57:57;3.8;;;8.7;;
74483;SDS011;62942;52.462;10.846;2023-12-20T00:59:07;3.4;;;7.9;;
74483;SDS011;62942;52.462;10.846;2023-12-20T01:00:17;3.6;;;6.9;;
74483;SDS011;62942;52.462;10.846;2023-12-20T01:01:27;3.6;;;9.1;;
74483;SDS011;62942;52.462;10.846;2023-12-20T01:02:37;3.6;;;7.7;;
74483;SDS011;62942;52.462;10.846;2023-12-20T01:03:47;3.4;;;9.7;;
74483;SDS011;62942;52.462;10.846;2023-12-20T01:04:57;3.3;;;6.6;;
74483;SDS011;62942;52.462;10.846;2023-12-20T01:05:57;3.6;;;8;;
74483;SDS011;62942;52.462;10.846;2023-12-20T01:06:57;3.6;;;7.8;;
74483;SDS011;62942;52.462;10.846;2023-12-20T01:08:07;3.4;;;7.9;;
74483;SDS011;62942;52.462;10.846;2023-12-20T01:09:17;3.3;;;7.5;;
74483;SDS011;62942;52.462;10.846;2023-12-20T01:10:27;3.2;;;7.5;;
74483;SDS011;62942;52.462;10.846;2023-12-20T01:11:37;3.4;;;7.4;;
74483;SDS011;62942;52.462;10.846;2023-12-20T01:12:47;3.5;;;9.1;;
74483;SDS011;62942;52.462;10.846;2023-12-20T01:13:57;3.4;;;8.1;;
74483;SDS011;62942;52.462;10.846;2023-12-20T01:15:07;3.7;;;9.7;;
74483;SDS011;62942;52.462;10.846;2023-12-20T01:16:17;3.9;;;10.2;;
74483;SDS011;62942;52.462;10.846;2023-12-20T01:17:17;3.3;;;7.3;;
74483;SDS011;62942;52.462;10.846;2023-12-20T01:18:27;3.7;;;8.8;;
74483;SDS011;62942;52.462;10.846;2023-12-20T01:19:37;3.4;;;8.4;;
74483;SDS011;62942;52.462;10.846;2023-12-20T01:20:37;3.4;;;7.5;;
74483;SDS011;62942;52.462;10.846;2023-12-20T01:21:47;3.5;;;9.3;;
74483;SDS011;62942;52.462;10.846;2023-12-20T01:22:57;3.3;;;8.6;;
74483;SDS011;62942;52.462;10.846;2023-12-20T01:24:07;3.3;;;8.8;;
74483;SDS011;62942;52.462;10.846;2023-12-20T01:25:17;3.6;;;9.6;;
74483;SDS011;62942;52.462;10.846;2023-12-20T01:26:27;3.3;;;8.6;;
74483;SDS011;62942;52.462;10.846;2023-12-20T01:27:27;3.3;;;9.4;;
74483;SDS011;62942;52.462;10.846;2023-12-20T01:28:37;3.6;;;9.3;;
74483;SDS011;62942;52.462;10.846;2023-12-20T01:29:47;3.3;;;9.7;;
74483;SDS011;62942;52.462;10.846;2023-12-20T01:30:47;3.4;;;9.8;;
74483;SDS011;62942;52.462;10.846;2023-12-20T01:31:57;3.5;;;10.3;;
74483;SDS011;62942;52.462;10.846;2023-12-20T01:33:07;3.3;;;10;;
74483;SDS011;62942;52.462;10.846;2023-12-20T01:34:07;3.3;;;10.9;;
74483;SDS011;62942;52.462;10.846;2023-12-20T01:35:17;3.5;;;10.3;;
74483;SDS011;62942;52.462;10.846;2023-12-20T01:36:27;3.3;;;9;;
74483;SDS011;62942;52.462;10.846;2023-12-20T01:37:27;3.4;;;10.2;;
74483;SDS011;62942;52.462;10.846;2023-12-20T01:38:37;3.6;;;14;;
74483;SDS011;62942;52.462;10.846;2023-12-20T01:39:37;3.3;;;10.9;;
74483;SDS011;62942;52.462;10.846;2023-12-20T01:40:47;3.2;;;9.3;;
74483;SDS011;62942;52.462;10.846;2023-12-20T01:41:57;3.2;;;11.1;;
74483;SDS011;62942;52.462;10.846;2023-12-20T01:43:07;3.4;;;13.9;;
74483;SDS011;62942;52.462;10.846;2023-12-20T01:44:07;2.9;;;10.4;;
74483;SDS011;62942;52.462;10.846;2023-12-20T01:45:07;2.7;;;9.4;;
74483;SDS011;62942;52.462;10.846;2023-12-20T01:46:17;2.8;;;10.8;;
74483;SDS011;62942;52.462;10.846;2023-12-20T01:47:17;2.9;;;9.8;;
74483;SDS011;62942;52.462;10.846;2023-12-20T01:48:27;3.5;;;11.6;;
74483;SDS011;62942;52.462;10.846;2023-12-20T01:49:37;2.7;;;13.3;;
74483;SDS011;62942;52.462;10.846;2023-12-20T01:50:37;3;;;14.1;;
74483;SDS011;62942;52.462;10.846;2023-12-20T01:51:47;2.5;;;13.1;;
74483;SDS011;62942;52.462;10.846;2023-12-20T01:52:57;2.7;;;9.5;;
74483;SDS011;62942;52.462;10.846;2023-12-20T01:54:07;3.1;;;13.1;;
74483;SDS011;62942;52.462;10.846;2023-12-20T01:55:07;2.6;;;12.2;;
74483;SDS011;62942;52.462;10.846;2023-12-20T01:56:17;2.6;;;9.6;;
74483;SDS011;62942;52.462;10.846;2023-12-20T01:57:17;3;;;10.1;;
74483;SDS011;62942;52.462;10.846;2023-12-20T01:58:27;2.9;;;10.8;;
74483;SDS011;62942;52.462;10.846;2023-12-20T01:59:37;2.7;;;10.9;;
74483;SDS011;62942;52.462;10.846;2023-12-20T02:00:37;2.9;;;12.2;;
74483;SDS011;62942;52.462;10.846;2023-12-20T02:01:47;3.3;;;15.1;;
74483;SDS011;62942;52.462;10.846;2023-12-20T02:02:47;3;;;11.8;;
74483;SDS011;62942;52.462;10.846;2023-12-20T02:03:47;3;;;11.8;;
74483;SDS011;62942;52.462;10.846;2023-12-20T02:04:57;2.7;;;13;;
74483;SDS011;62942;52.462;10.846;2023-12-20T02:05:57;3;;;13.3;;
74483;SDS011;62942;52.462;10.846;2023-12-20T02:06:57;2.8;;;12.8;;
74483;SDS011;62942;52.462;10.846;2023-12-20T02:08:07;2.6;;;10.9;;
74483;SDS011;62942;52.462;10.846;2023-12-20T02:09:17;2.8;;;8.9;;
74483;SDS011;62942;52.462;10.846;2023-12-20T02:10:17;2.6;;;9.3;;
74483;SDS011;62942;52.462;10.846;2023-12-20T02:11:27;2.9;;;15.5;;
74483;SDS011;62942;52.462;10.846;2023-12-20T02:12:27;2.8;;;9.7;;
74483;SDS011;62942;52.462;10.846;2023-12-20T02:13:37;3;;;10.9;;
74483;SDS011;62942;52.462;10.846;2023-12-20T02:14:37;2.9;;;11.5;;
74483;SDS011;62942;52.462;10.846;2023-12-20T02:15:47;2.8;;;10.4;;
74483;SDS011;62942;52.462;10.846;2023-12-20T02:16:47;2.7;;;9.4;;
74483;SDS011;62942;52.462;10.846;2023-12-20T02:17:57;2.7;;;10.9;;
74483;SDS011;62942;52.462;10.846;2023-12-20T02:18:57;3;;;11.6;;
74483;SDS011;62942;52.462;10.846;2023-12-20T02:20:07;2.8;;;12.2;;
74483;SDS011;62942;52.462;10.846;2023-12-20T02:21:17;3.1;;;15.7;;
74483;SDS011;62942;52.462;10.846;2023-12-20T02:22:17;2.7;;;10.9;;
74483;SDS011;62942;52.462;10.846;2023-12-20T02:23:27;2.7;;;11.1;;
74483;SDS011;62942;52.462;10.846;2023-12-20T02:24:37;2.3;;;9.5;;
74483;SDS011;62942;52.462;10.846;2023-12-20T02:25:37;2.7;;;12.3;;
74483;SDS011;62942;52.462;10.846;2023-12-20T02:26:47;2.7;;;13;;
74483;SDS011;62942;52.462;10.846;2023-12-20T02:27:47;2.9;;;11.7;;
74483;SDS011;62942;52.462;10.846;2023-12-20T02:28:57;3.1;;;11.1;;
74483;SDS011;62942;52.462;10.846;2023-12-20T02:29:57;2.7;;;10.8;;
74483;SDS011;62942;52.462;10.846;2023-12-20T02:31:07;2.7;;;11.9;;
74483;SDS011;62942;52.462;10.846;2023-12-20T02:32:07;2.9;;;12.7;;
74483;SDS011;62942;52.462;10.846;2023-12-20T02:33:17;2.6;;;11.5;;
74483;SDS011;62942;52.462;10.846;2023-12-20T02:34:27;3.1;;;11.4;;
74483;SDS011;62942;52.462;10.846;2023-12-20T02:35:27;2.8;;;12.2;;
74483;SDS011;62942;52.462;10.846;2023-12-20T02:36:37;3;;;12.6;;
74483;SDS011;62942;52.462;10.846;2023-12-20T02:37:47;2.9;;;11.4;;
74483;SDS011;62942;52.462;10.846;2023-12-20T02:38:57;2.9;;;11.7;;
74483;SDS011;62942;52.462;10.846;2023-12-20T02:40:07;3.1;;;14;;
74483;SDS011;62942;52.462;10.846;2023-12-20T02:41:17;3;;;12.2;;
74483;SDS011;62942;52.462;10.846;2023-12-20T02:42:17;3;;;11.5;;
74483;SDS011;62942;52.462;10.846;2023-12-20T02:43:27;3.2;;;13.4;;
74483;SDS011;62942;52.462;10.846;2023-12-20T02:44:27;3.1;;;13;;
74483;SDS011;62942;52.462;10.846;2023-12-20T02:45:27;3.3;;;12.5;;
74483;SDS011;62942;52.462;10.846;2023-12-20T02:46:37;2.8;;;8.9;;
74483;SDS011;62942;52.462;10.846;2023-12-20T02:47:47;3.3;;;13.8;;
74483;SDS011;62942;52.462;10.846;2023-12-20T02:48:57;3;;;11.4;;
74483;SDS011;62942;52.462;10.846;2023-12-20T02:50:07;3;;;9.4;;
74483;SDS011;62942;52.462;10.846;2023-12-20T02:51:17;3;;;11.7;;
74483;SDS011;62942;52.462;10.846;2023-12-20T02:52:17;3.2;;;13.2;;
74483;SDS011;62942;52.462;10.846;2023-12-20T02:53:27;3.1;;;9.5;;
74483;SDS011;62942;52.462;10.846;2023-12-20T02:54:37;2.9;;;11.8;;
74483;SDS011;62942;52.462;10.846;2023-12-20T02:55:47;3.2;;;12.3;;
74483;SDS011;62942;52.462;10.846;2023-12-20T02:56:57;3.4;;;14.6;;
74483;SDS011;62942;52.462;10.846;2023-12-20T02:58:07;3.3;;;13.2;;
74483;SDS011;62942;52.462;10.846;2023-12-20T02:59:17;3.4;;;14.5;;
74483;SDS011;62942;52.462;10.846;2023-12-20T03:00:17;3.4;;;11.8;;
74483;SDS011;62942;52.462;10.846;2023-12-20T03:01:27;3.5;;;10.7;;
74483;SDS011;62942;52.462;10.846;2023-12-20T03:02:27;3.6;;;10.9;;
74483;SDS011;62942;52.462;10.846;2023-12-20T03:03:37;3.3;;;11.2;;
74483;SDS011;62942;52.462;10.846;2023-12-20T03:04:47;3.3;;;11.9;;
74483;SDS011;62942;52.462;10.846;2023-12-20T03:05:47;3.6;;;17.7;;
74483;SDS011;62942;52.462;10.846;2023-12-20T03:06:57;3.7;;;14.7;;
74483;SDS011;62942;52.462;10.846;2023-12-20T03:07:57;3.4;;;12.4;;
74483;SDS011;62942;52.462;10.846;2023-12-20T03:09:07;3.5;;;12.5;;
74483;SDS011;62942;52.462;10.846;2023-12-20T03:10:07;3.4;;;12.6;;
74483;SDS011;62942;52.462;10.846;2023-12-20T03:11:17;3.4;;;13.4;;
74483;SDS011;62942;52.462;10.846;2023-12-20T03:12:17;3.3;;;11;;
74483;SDS011;62942;52.462;10.846;2023-12-20T03:13:27;3.4;;;12;;
74483;SDS011;62942;52.462;10.846;2023-12-20T03:14:37;3.6;;;13.6;;
74483;SDS011;62942;52.462;10.846;2023-12-20T03:15:37;3.3;;;12.8;;
74483;SDS011;62942;52.462;10.846;2023-12-20T03:16:47;3.6;;;11.4;;
74483;SDS011;62942;52.462;10.846;2023-12-20T03:17:57;3.7;;;12.8;;
74483;SDS011;62942;52.462;10.846;2023-12-20T03:19:07;3.5;;;11.8;;
74483;SDS011;62942;52.462;10.846;2023-12-20T03:20:07;3.5;;;12.5;;
74483;SDS011;62942;52.462;10.846;2023-12-20T03:21:07;3.5;;;13.3;;
74483;SDS011;62942;52.462;10.846;2023-12-20T03:22:17;3.5;;;12;;
74483;SDS011;62942;52.462;10.846;2023-12-20T03:23:17;3.4;;;13.2;;
74483;SDS011;62942;52.462;10.846;2023-12-20T03:24:17;3.1;;;12.7;;
74483;SDS011;62942;52.462;10.846;2023-12-20T03:25:27;3.3;;;12.8;;
74483;SDS011;62942;52.462;10.846;2023-12-20T03:26:27;3.4;;;14.8;;
74483;SDS011;62942;52.462;10.846;2023-12-20T03:27:37;3.3;;;12.1;;
74483;SDS011;62942;52.462;10.846;2023-12-20T03:28:47;2.9;;;11.9;;
74483;SDS011;62942;52.462;10.846;2023-12-20T03:29:57;3;;;13.1;;
74483;SDS011;62942;52.462;10.846;2023-12-20T03:30:57;2.9;;;12.9;;
74483;SDS011;62942;52.462;10.846;2023-12-20T03:32:07;3.4;;;14.1;;
74483;SDS011;62942;52.462;10.846;2023-12-20T03:33:17;3.1;;;15.1;;
74483;SDS011;62942;52.462;10.846;2023-12-20T03:34:17;3.1;;;14.4;;
74483;SDS011;62942;52.462;10.846;2023-12-20T03:35:27;2.9;;;15.5;;
74483;SDS011;62942;52.462;10.846;2023-12-20T03:36:27;2.8;;;12.2;;
74483;SDS011;62942;52.462;10.846;2023-12-20T03:37:27;3;;;13.7;;
74483;SDS011;62942;52.462;10.846;2023-12-20T03:38:27;3.2;;;14.4;;
74483;SDS011;62942;52.462;10.846;2023-12-20T03:39:37;3;;;11.8;;
74483;SDS011;62942;52.462;10.846;2023-12-20T03:40:37;2.8;;;10.8;;
74483;SDS011;62942;52.462;10.846;2023-12-20T03:41:47;3;;;10.5;;
74483;SDS011;62942;52.462;10.846;2023-12-20T03:42:47;3.3;;;15;;
74483;SDS011;62942;52.462;10.846;2023-12-20T03:43:57;3.4;;;12.9;;
74483;SDS011;62942;52.462;10.846;2023-12-20T03:44:57;2.9;;;12;;
74483;SDS011;62942;52.462;10.846;2023-12-20T03:46:07;2.8;;;9.6;;
74483;SDS011;62942;52.462;10.846;2023-12-20T03:47:07;2.9;;;13.2;;
74483;SDS011;62942;52.462;10.846;2023-12-20T03:48:17;3.2;;;10;;
74483;SDS011;62942;52.462;10.846;2023-12-20T03:49:17;3.2;;;13.8;;
74483;SDS011;62942;52.462;10.846;2023-12-20T03:50:27;3.1;;;13.3;;
74483;SDS011;62942;52.462;10.846;2023-12-20T03:51:37;3.3;;;13;;
74483;SDS011;62942;52.462;10.846;2023-12-20T03:52:37;3.1;;;15.6;;
74483;SDS011;62942;52.462;10.846;2023-12-20T03:53:37;3;;;12.9;;
74483;SDS011;62942;52.462;10.846;2023-12-20T03:54:47;2.9;;;11.9;;
74483;SDS011;62942;52.462;10.846;2023-12-20T03:55:57;3;;;13.5;;
74483;SDS011;62942;52.462;10.846;2023-12-20T03:56:57;2.8;;;11.1;;
74483;SDS011;62942;52.462;10.846;2023-12-20T03:57:57;2.8;;;13.3;;
74483;SDS011;62942;52.462;10.846;2023-12-20T03:58:57;3.4;;;14;;
74483;SDS011;62942;52.462;10.846;2023-12-20T04:00:07;3;;;13.7;;
74483;SDS011;62942;52.462;10.846;2023-12-20T04:01:17;3.6;;;15;;
74483;SDS011;62942;52.462;10.846;2023-12-20T04:02:27;3.2;;;12.6;;
74483;SDS011;62942;52.462;10.846;2023-12-20T04:03:27;3.5;;;15;;
74483;SDS011;62942;52.462;10.846;2023-12-20T04:04:27;3.7;;;13.8;;
74483;SDS011;62942;52.462;10.846;2023-12-20T04:05:37;3.2;;;12;;
74483;SDS011;62942;52.462;10.846;2023-12-20T04:06:37;3.6;;;12.5;;
74483;SDS011;62942;52.462;10.846;2023-12-20T04:07:47;3.7;;;15;;
74483;SDS011;62942;52.462;10.846;2023-12-20T04:08:47;3.7;;;16.1;;
74483;SDS011;62942;52.462;10.846;2023-12-20T04:09:47;3.7;;;12.7;;
74483;SDS011;62942;52.462;10.846;2023-12-20T04:10:57;3.8;;;11.7;;
74483;SDS011;62942;52.462;10.846;2023-12-20T04:12:07;3.8;;;12.6;;
74483;SDS011;62942;52.462;10.846;2023-12-20T04:13:07;3.9;;;12.1;;
74483;SDS011;62942;52.462;10.846;2023-12-20T04:14:17;3.9;;;11.5;;
74483;SDS011;62942;52.462;10.846;2023-12-20T04:15:17;3.9;;;11.8;;
74483;SDS011;62942;52.462;10.846;2023-12-20T04:16:27;4;;;15.2;;
74483;SDS011;62942;52.462;10.846;2023-12-20T04:17:27;3.9;;;13.5;;
74483;SDS011;62942;52.462;10.846;2023-12-20T04:18:37;4;;;13.8;;
74483;SDS011;62942;52.462;10.846;2023-12-20T04:19:37;3.9;;;16.9;;
74483;SDS011;62942;52.462;10.846;2023-12-20T04:20:47;3.9;;;11.6;;
74483;SDS011;62942;52.462;10.846;2023-12-20T04:21:47;4.1;;;14.1;;
74483;SDS011;62942;52.462;10.846;2023-12-20T04:22:57;3.8;;;14.8;;
74483;SDS011;62942;52.462;10.846;2023-12-20T04:23:57;3.6;;;11.4;;
74483;SDS011;62942;52.462;10.846;2023-12-20T04:24:57;4.2;;;15.1;;
74483;SDS011;62942;52.462;10.846;2023-12-20T04:26:07;4.2;;;13.3;;
74483;SDS011;62942;52.462;10.846;2023-12-20T04:27:07;4.3;;;15.8;;
74483;SDS011;62942;52.462;10.846;2023-12-20T04:28:17;4;;;14.2;;
74483;SDS011;62942;52.462;10.846;2023-12-20T04:29:17;3.9;;;14;;
74483;SDS011;62942;52.462;10.846;2023-12-20T04:30:27;3.9;;;12.4;;
74483;SDS011;62942;52.462;10.846;2023-12-20T04:31:27;3.9;;;13.8;;
74483;SDS011;62942;52.462;10.846;2023-12-20T04:32:37;4.2;;;14.6;;
74483;SDS011;62942;52.462;10.846;2023-12-20T04:33:37;3.8;;;18;;
74483;SDS011;62942;52.462;10.846;2023-12-20T04:34:37;3.4;;;13.7;;
74483;SDS011;62942;52.462;10.846;2023-12-20T04:35:47;3.8;;;13.8;;
74483;SDS011;62942;52.462;10.846;2023-12-20T04:36:47;3.6;;;14.1;;
74483;SDS011;62942;52.462;10.846;2023-12-20T04:37:57;3.4;;;11.5;;
74483;SDS011;62942;52.462;10.846;2023-12-20T04:38:56;3.3;;;14.4;;
74483;SDS011;62942;52.462;10.846;2023-12-20T04:39:57;3.3;;;13.5;;
74483;SDS011;62942;52.462;10.846;2023-12-20T04:41:07;3.5;;;12;;
74483;SDS011;62942;52.462;10.846;2023-12-20T04:42:17;3.2;;;11.1;;
74483;SDS011;62942;52.462;10.846;2023-12-20T04:43:26;3.2;;;12.2;;
74483;SDS011;62942;52.462;10.846;2023-12-20T04:44:36;3.3;;;15.3;;
74483;SDS011;62942;52.462;10.846;2023-12-20T04:45:36;3.3;;;16.9;;
74483;SDS011;62942;52.462;10.846;2023-12-20T04:46:36;3.2;;;12.1;;
74483;SDS011;62942;52.462;10.846;2023-12-20T04:47:36;3.3;;;16.5;;
74483;SDS011;62942;52.462;10.846;2023-12-20T04:48:37;2.6;;;11.6;;
74483;SDS011;62942;52.462;10.846;2023-12-20T04:49:46;2.7;;;9.4;;
74483;SDS011;62942;52.462;10.846;2023-12-20T04:50:46;3.3;;;14.5;;
74483;SDS011;62942;52.462;10.846;2023-12-20T04:51:56;2.7;;;14;;
74483;SDS011;62942;52.462;10.846;2023-12-20T04:53:06;2.6;;;12.4;;
74483;SDS011;62942;52.462;10.846;2023-12-20T04:54:06;2.6;;;10.6;;
74483;SDS011;62942;52.462;10.846;2023-12-20T04:55:16;2.6;;;10.4;;
74483;SDS011;62942;52.462;10.846;2023-12-20T04:56:17;2.6;;;10.4;;
74483;SDS011;62942;52.462;10.846;2023-12-20T04:57:26;2.6;;;10.2;;
74483;SDS011;62942;52.462;10.846;2023-12-20T04:58:37;2.4;;;13;;
74483;SDS011;62942;52.462;10.846;2023-12-20T04:59:36;2.4;;;10.7;;
74483;SDS011;62942;52.462;10.846;2023-12-20T05:00:36;2.3;;;11.1;;
74483;SDS011;62942;52.462;10.846;2023-12-20T05:01:36;2.3;;;11.4;;
74483;SDS011;62942;52.462;10.846;2023-12-20T05:02:46;2.3;;;10.6;;
74483;SDS011;62942;52.462;10.846;2023-12-20T05:03:56;2.2;;;9.3;;
74483;SDS011;62942;52.462;10.846;2023-12-20T05:04:56;2.1;;;9.6;;
74483;SDS011;62942;52.462;10.846;2023-12-20T05:05:56;2.3;;;11.4;;
74483;SDS011;62942;52.462;10.846;2023-12-20T05:07:06;1.8;;;7.5;;
74483;SDS011;62942;52.462;10.846;2023-12-20T05:08:16;2.3;;;9.8;;
74483;SDS011;62942;52.462;10.846;2023-12-20T05:09:26;2.2;;;11.5;;
74483;SDS011;62942;52.462;10.846;2023-12-20T05:10:26;2.1;;;9.7;;
74483;SDS011;62942;52.462;10.846;2023-12-20T05:11:36;2.4;;;11.4;;
74483;SDS011;62942;52.462;10.846;2023-12-20T05:12:36;2.1;;;11;;
74483;SDS011;62942;52.462;10.846;2023-12-20T05:13:36;1.8;;;7.1;;
74483;SDS011;62942;52.462;10.846;2023-12-20T05:14:46;1.8;;;10.3;;
74483;SDS011;62942;52.462;10.846;2023-12-20T05:15:56;2.1;;;7.5;;
74483;SDS011;62942;52.462;10.846;2023-12-20T05:17:06;1.7;;;8.5;;
74483;SDS011;62942;52.462;10.846;2023-12-20T05:18:16;1.7;;;6.7;;
74483;SDS011;62942;52.462;10.846;2023-12-20T05:19:26;1.9;;;11.7;;
74483;SDS011;62942;52.462;10.846;2023-12-20T05:20:36;1.8;;;9.3;;
74483;SDS011;62942;52.462;10.846;2023-12-20T05:21:36;2;;;9.5;;
74483;SDS011;62942;52.462;10.846;2023-12-20T05:22:37;1.9;;;8.1;;
74483;SDS011;62942;52.462;10.846;2023-12-20T05:23:46;1.9;;;8.4;;
74483;SDS011;62942;52.462;10.846;2023-12-20T05:24:56;1.8;;;9.6;;
74483;SDS011;62942;52.462;10.846;2023-12-20T05:25:56;1.7;;;8.4;;
74483;SDS011;62942;52.462;10.846;2023-12-20T05:27:06;1.9;;;10;;
74483;SDS011;62942;52.462;10.846;2023-12-20T05:28:06;1.9;;;8.7;;
74483;SDS011;62942;52.462;10.846;2023-12-20T05:29:16;1.7;;;9.6;;
74483;SDS011;62942;52.462;10.846;2023-12-20T05:30:16;1.9;;;8.6;;
74483;SDS011;62942;52.462;10.846;2023-12-20T05:31:26;2.3;;;9.7;;
74483;SDS011;62942;52.462;10.846;2023-12-20T05:32:26;1.7;;;9.2;;
74483;SDS011;62942;52.462;10.846;2023-12-20T05:33:26;2.2;;;11.6;;
74483;SDS011;62942;52.462;10.846;2023-12-20T05:34:36;2.1;;;10.4;;
74483;SDS011;62942;52.462;10.846;2023-12-20T05:35:46;1.9;;;9.1;;
74483;SDS011;62942;52.462;10.846;2023-12-20T05:36:46;1.9;;;8;;
74483;SDS011;62942;52.462;10.846;2023-12-20T05:37:46;2.1;;;9.5;;
74483;SDS011;62942;52.462;10.846;2023-12-20T05:38:56;2.2;;;10.7;;
74483;SDS011;62942;52.462;10.846;2023-12-20T05:39:56;2.1;;;9.6;;
74483;SDS011;62942;52.462;10.846;2023-12-20T05:41:06;2.1;;;11.6;;
74483;SDS011;62942;52.462;10.846;2023-12-20T05:42:06;1.9;;;8.2;;
74483;SDS011;62942;52.462;10.846;2023-12-20T05:43:16;2.1;;;9;;
74483;SDS011;62942;52.462;10.846;2023-12-20T05:44:16;2.1;;;10.7;;
74483;SDS011;62942;52.462;10.846;2023-12-20T05:45:26;2.2;;;9;;
74483;SDS011;62942;52.462;10.846;2023-12-20T05:46:36;2;;;8.8;;
74483;SDS011;62942;52.462;10.846;2023-12-20T05:47:36;1.9;;;9.6;;
74483;SDS011;62942;52.462;10.846;2023-12-20T05:48:46;2.1;;;8.1;;
74483;SDS011;62942;52.462;10.846;2023-12-20T05:49:46;1.9;;;8.7;;
74483;SDS011;62942;52.462;10.846;2023-12-20T05:50:57;1.9;;;7.2;;
74483;SDS011;62942;52.462;10.846;2023-12-20T05:51:56;2.1;;;9;;
74483;SDS011;62942;52.462;10.846;2023-12-20T05:53:06;2.3;;;11.7;;
74483;SDS011;62942;52.462;10.846;2023-12-20T05:54:16;1.9;;;12.1;;
74483;SDS011;62942;52.462;10.846;2023-12-20T05:55:16;2.1;;;9.5;;
74483;SDS011;62942;52.462;10.846;2023-12-20T05:56:26;2.3;;;12.5;;
74483;SDS011;62942;52.462;10.846;2023-12-20T05:57:26;2.2;;;11.8;;
74483;SDS011;62942;52.462;10.846;2023-12-20T05:58:38;2.1;;;10.9;;
74483;SDS011;62942;52.462;10.846;2023-12-20T05:59:46;2.1;;;9.9;;
74483;SDS011;62942;52.462;10.846;2023-12-20T06:00:47;2.1;;;8.6;;
74483;SDS011;62942;52.462;10.846;2023-12-20T06:01:56;2;;;8.9;;
74483;SDS011;62942;52.462;10.846;2023-12-20T06:03:06;2.2;;;10.8;;
74483;SDS011;62942;52.462;10.846;2023-12-20T06:04:06;2.2;;;10.8;;
74483;SDS011;62942;52.462;10.846;2023-12-20T06:05:16;2.6;;;12.2;;
74483;SDS011;62942;52.462;10.846;2023-12-20T06:06:26;2.5;;;12.2;;
74483;SDS011;62942;52.462;10.846;2023-12-20T06:07:26;1.9;;;8.5;;
74483;SDS011;62942;52.462;10.846;2023-12-20T06:08:36;2.4;;;10.9;;
74483;SDS011;62942;52.462;10.846;2023-12-20T06:09:46;2.2;;;9.1;;
74483;SDS011;62942;52.462;10.846;2023-12-20T06:10:56;2.3;;;9.5;;
74483;SDS011;62942;52.462;10.846;2023-12-20T06:11:56;2.5;;;12;;
74483;SDS011;62942;52.462;10.846;2023-12-20T06:12:56;2.3;;;12.7;;
74483;SDS011;62942;52.462;10.846;2023-12-20T06:14:06;2.4;;;9.9;;
74483;SDS011;62942;52.462;10.846;2023-12-20T06:15:07;2.5;;;9.3;;
74483;SDS011;62942;52.462;10.846;2023-12-20T06:16:16;2.2;;;10.8;;
74483;SDS011;62942;52.462;10.846;2023-12-20T06:17:16;2.4;;;11.2;;
74483;SDS011;62942;52.462;10.846;2023-12-20T06:18:16;2.3;;;11.8;;
74483;SDS011;62942;52.462;10.846;2023-12-20T06:19:26;2.7;;;12.4;;
74483;SDS011;62942;52.462;10.846;2023-12-20T06:20:36;2.6;;;14.4;;
74483;SDS011;62942;52.462;10.846;2023-12-20T06:21:36;2.4;;;9.4;;
74483;SDS011;62942;52.462;10.846;2023-12-20T06:22:46;2.5;;;12.5;;
74483;SDS011;62942;52.462;10.846;2023-12-20T06:23:58;2.9;;;11;;
74483;SDS011;62942;52.462;10.846;2023-12-20T06:25:07;3;;;12;;
74483;SDS011;62942;52.462;10.846;2023-12-20T06:26:16;2.4;;;9.7;;
74483;SDS011;62942;52.462;10.846;2023-12-20T06:27:16;2.7;;;12.4;;
74483;SDS011;62942;52.462;10.846;2023-12-20T06:28:26;2.5;;;11.9;;
74483;SDS011;62942;52.462;10.846;2023-12-20T06:29:27;2.5;;;10.5;;
74483;SDS011;62942;52.462;10.846;2023-12-20T06:30:36;3;;;14.8;;
74483;SDS011;62942;52.462;10.846;2023-12-20T06:31:36;2.6;;;12.9;;
74483;SDS011;62942;52.462;10.846;2023-12-20T06:32:46;2.5;;;13;;
74483;SDS011;62942;52.462;10.846;2023-12-20T06:33:46;2.8;;;11.9;;
74483;SDS011;62942;52.462;10.846;2023-12-20T06:34:56;2.3;;;10.6;;
74483;SDS011;62942;52.462;10.846;2023-12-20T06:36:06;2.8;;;14.6;;
74483;SDS011;62942;52.462;10.846;2023-12-20T06:37:06;2.6;;;11.8;;
74483;SDS011;62942;52.462;10.846;2023-12-20T06:38:17;2.6;;;12.7;;
74483;SDS011;62942;52.462;10.846;2023-12-20T06:39:16;2.5;;;11.5;;
74483;SDS011;62942;52.462;10.846;2023-12-20T06:40:26;2.7;;;13.3;;
74483;SDS011;62942;52.462;10.846;2023-12-20T06:41:27;2.5;;;11.6;;
74483;SDS011;62942;52.462;10.846;2023-12-20T06:42:36;2.6;;;11.9;;